sensor_id;sensor_type;location;lat;lon;timestamp;pressure;altitude;pressure_sealevel;temperature;humidity
39443;BME280;25147;52.142;9.960;2023-11-19T00:00:21;99784.06;;;3.98;100.00
39443;BME280;25147;52.142;9.960;2023-11-19T00:02:47;99829.81;;;4.20;100.00
39443;BME280;25147;52.142;9.960;2023-11-19T00:05:14;100007.78;;;5.37;100.00
39443;BME280;25147;52.142;9.960;2023-11-19T00:07:41;99784.06;;;4.06;100.00
39443;BME280;25147;52.142;9.960;2023-11-19T00:10:09;99868.66;;;4.76;100.00
39443;BME280;25147;52.142;9.960;2023-11-19T00:12:47;99885.91;;;4.95;100.00
39443;BME280;25147;52.142;9.960;2023-11-19T00:15:15;99830.66;;;4.55;100.00
39443;BME280;25147;52.142;9.960;2023-11-19T00:17:45;99531.28;;;2.85;100.00
39443;BME280;25147;52.142;9.960;2023-11-19T00:20:13;99980.94;;;5.55;100.00
39443;BME280;25147;52.142;9.960;2023-11-19T00:22:40;99979.16;;;5.63;100.00
39443;BME280;25147;52.142;9.960;2023-11-19T00:25:08;99971.38;;;5.65;100.00
39443;BME280;25147;52.142;9.960;2023-11-19T00:27:35;99897.94;;;5.21;100.00
39443;BME280;25147;52.142;9.960;2023-11-19T00:30:05;99803.84;;;4.73;100.00
39443;BME280;25147;52.142;9.960;2023-11-19T00:32:32;99743.41;;;4.43;100.00
39443;BME280;25147;52.142;9.960;2023-11-19T00:34:59;99872.03;;;5.19;100.00
39443;BME280;25147;52.142;9.960;2023-11-19T00:37:26;99929.84;;;5.66;100.00
39443;BME280;25147;52.142;9.960;2023-11-19T00:39:53;99949.69;;;5.73;100.00
39443;BME280;25147;52.142;9.960;2023-11-19T00:42:21;99926.34;;;5.69;100.00
39443;BME280;25147;52.142;9.960;2023-11-19T00:44:48;99872.81;;;5.40;100.00
39443;BME280;25147;52.142;9.960;2023-11-19T00:47:16;99891.72;;;5.71;100.00
39443;BME280;25147;52.142;9.960;2023-11-19T00:49:46;99749.41;;;4.73;100.00
39443;BME280;25147;52.142;9.960;2023-11-19T00:52:13;99843.41;;;5.39;100.00
39443;BME280;25147;52.142;9.960;2023-11-19T00:54:40;99814.88;;;5.30;100.00
39443;BME280;25147;52.142;9.960;2023-11-19T00:57:07;99866.66;;;5.61;100.00
39443;BME280;25147;52.142;9.960;2023-11-19T00:59:34;99892.50;;;5.84;100.00
39443;BME280;25147;52.142;9.960;2023-11-19T01:02:01;99877.88;;;5.71;100.00
39443;BME280;25147;52.142;9.960;2023-11-19T01:04:33;99913.28;;;5.86;100.00
39443;BME280;25147;52.142;9.960;2023-11-19T01:07:01;99812.28;;;5.32;100.00
39443;BME280;25147;52.142;9.960;2023-11-19T01:09:29;99879.53;;;5.79;100.00
39443;BME280;25147;52.142;9.960;2023-11-19T01:11:57;99868.34;;;5.74;100.00
39443;BME280;25147;52.142;9.960;2023-11-19T01:14:25;99858.75;;;5.79;100.00
39443;BME280;25147;52.142;9.960;2023-11-19T01:16:52;99826.84;;;5.59;100.00
39443;BME280;25147;52.142;9.960;2023-11-19T01:19:21;99856.94;;;5.94;100.00
39443;BME280;25147;52.142;9.960;2023-11-19T01:21:49;99775.81;;;5.58;100.00
39443;BME280;25147;52.142;9.960;2023-11-19T01:24:16;99834.44;;;5.91;100.00
39443;BME280;25147;52.142;9.960;2023-11-19T01:26:43;99810.31;;;5.78;100.00
39443;BME280;25147;52.142;9.960;2023-11-19T01:29:10;99853.44;;;6.09;100.00
39443;BME280;25147;52.142;9.960;2023-11-19T01:31:39;99834.44;;;6.00;100.00
39443;BME280;25147;52.142;9.960;2023-11-19T01:34:06;99845.59;;;6.13;100.00
39443;BME280;25147;52.142;9.960;2023-11-19T01:36:33;99807.63;;;5.86;100.00
39443;BME280;25147;52.142;9.960;2023-11-19T01:39:01;99851.59;;;6.18;100.00
39443;BME280;25147;52.142;9.960;2023-11-19T01:41:29;99817.91;;;6.06;100.00
39443;BME280;25147;52.142;9.960;2023-11-19T01:43:56;99818.75;;;6.08;100.00
39443;BME280;25147;52.142;9.960;2023-11-19T01:46:23;99784.19;;;5.94;100.00
39443;BME280;25147;52.142;9.960;2023-11-19T01:48:51;99826.47;;;6.20;100.00
39443;BME280;25147;52.142;9.960;2023-11-19T01:51:19;99817.84;;;6.15;100.00
39443;BME280;25147;52.142;9.960;2023-11-19T01:53:49;99821.16;;;6.33;100.00
39443;BME280;25147;52.142;9.960;2023-11-19T01:56:17;99831.56;;;6.36;100.00
39443;BME280;25147;52.142;9.960;2023-11-19T01:58:45;99666.00;;;5.42;100.00
39443;BME280;25147;52.142;9.960;2023-11-19T02:01:13;99817.72;;;6.31;100.00
39443;BME280;25147;52.142;9.960;2023-11-19T02:03:40;99817.66;;;6.41;100.00
39443;BME280;25147;52.142;9.960;2023-11-19T02:06:07;99771.06;;;6.15;100.00
39443;BME280;25147;52.142;9.960;2023-11-19T02:08:35;99806.34;;;6.41;100.00
39443;BME280;25147;52.142;9.960;2023-11-19T02:11:03;99798.53;;;6.44;100.00
39443;BME280;25147;52.142;9.960;2023-11-19T02:13:31;99757.06;;;6.29;100.00
39443;BME280;25147;52.142;9.960;2023-11-19T02:15:58;99782.09;;;6.43;100.00
39443;BME280;25147;52.142;9.960;2023-11-19T02:18:27;99801.88;;;6.55;100.00
39443;BME280;25147;52.142;9.960;2023-11-19T02:20:55;99746.75;;;6.22;100.00
39443;BME280;25147;52.142;9.960;2023-11-19T02:23:22;99777.63;;;6.56;100.00
39443;BME280;25147;52.142;9.960;2023-11-19T02:26:02;99704.25;;;6.28;100.00
39443;BME280;25147;52.142;9.960;2023-11-19T02:28:32;99743.03;;;6.45;100.00
39443;BME280;25147;52.142;9.960;2023-11-19T02:30:59;99781.91;;;6.63;100.00
39443;BME280;25147;52.142;9.960;2023-11-19T02:33:26;99719.84;;;6.27;100.00
39443;BME280;25147;52.142;9.960;2023-11-19T02:35:53;99681.88;;;6.10;100.00
39443;BME280;25147;52.142;9.960;2023-11-19T02:38:20;99736.16;;;6.41;100.00
39443;BME280;25147;52.142;9.960;2023-11-19T02:40:47;99754.19;;;6.59;100.00
39443;BME280;25147;52.142;9.960;2023-11-19T02:43:14;99736.91;;;6.54;100.00
39443;BME280;25147;52.142;9.960;2023-11-19T02:45:43;99746.34;;;6.61;100.00
39443;BME280;25147;52.142;9.960;2023-11-19T02:48:11;99749.72;;;6.69;100.00
39443;BME280;25147;52.142;9.960;2023-11-19T02:50:41;99714.44;;;6.45;100.00
39443;BME280;25147;52.142;9.960;2023-11-19T02:53:08;99712.72;;;6.46;100.00
39443;BME280;25147;52.142;9.960;2023-11-19T02:55:36;99660.13;;;6.22;100.00
39443;BME280;25147;52.142;9.960;2023-11-19T02:58:04;99643.66;;;6.23;100.00
39443;BME280;25147;52.142;9.960;2023-11-19T03:00:39;99729.66;;;6.82;100.00
39443;BME280;25147;52.142;9.960;2023-11-19T03:03:18;99677.81;;;6.65;100.00
39443;BME280;25147;52.142;9.960;2023-11-19T03:05:46;99707.84;;;6.92;100.00
39443;BME280;25147;52.142;9.960;2023-11-19T03:08:14;99711.31;;;6.90;100.00
39443;BME280;25147;52.142;9.960;2023-11-19T03:10:41;99653.56;;;6.63;100.00
39443;BME280;25147;52.142;9.960;2023-11-19T03:13:12;99702.66;;;6.89;100.00
39443;BME280;25147;52.142;9.960;2023-11-19T03:15:40;99617.22;;;6.58;100.00
39443;BME280;25147;52.142;9.960;2023-11-19T03:18:07;99666.16;;;6.95;100.00
39443;BME280;25147;52.142;9.960;2023-11-19T03:20:36;99657.53;;;6.92;100.00
39443;BME280;25147;52.142;9.960;2023-11-19T03:23:02;99680.81;;;7.02;100.00
39443;BME280;25147;52.142;9.960;2023-11-19T03:25:29;99689.38;;;7.11;100.00
39443;BME280;25147;52.142;9.960;2023-11-19T03:28:00;99680.75;;;7.09;100.00
39443;BME280;25147;52.142;9.960;2023-11-19T03:30:27;99660.00;;;7.02;100.00
39443;BME280;25147;52.142;9.960;2023-11-19T03:32:55;99615.38;;;6.67;100.00
39443;BME280;25147;52.142;9.960;2023-11-19T03:35:21;99614.53;;;6.68;100.00
39443;BME280;25147;52.142;9.960;2023-11-19T03:37:50;99661.84;;;6.94;100.00
39443;BME280;25147;52.142;9.960;2023-11-19T03:40:17;99684.28;;;7.05;100.00
39443;BME280;25147;52.142;9.960;2023-11-19T03:42:44;99674.72;;;7.03;100.00
39443;BME280;25147;52.142;9.960;2023-11-19T03:45:11;99643.69;;;6.90;100.00
39443;BME280;25147;52.142;9.960;2023-11-19T03:47:38;99642.13;;;6.78;100.00
39443;BME280;25147;52.142;9.960;2023-11-19T03:50:06;99642.00;;;6.87;100.00
39443;BME280;25147;52.142;9.960;2023-11-19T03:52:34;99684.94;;;7.19;100.00
39443;BME280;25147;52.142;9.960;2023-11-19T03:55:02;99684.00;;;7.23;100.00
39443;BME280;25147;52.142;9.960;2023-11-19T03:57:30;99673.50;;;7.28;100.00
39443;BME280;25147;52.142;9.960;2023-11-19T03:59:57;99654.56;;;7.18;100.00
39443;BME280;25147;52.142;9.960;2023-11-19T04:02:25;99619.84;;;7.19;100.00
39443;BME280;25147;52.142;9.960;2023-11-19T04:04:54;99630.94;;;7.30;100.00
39443;BME280;25147;52.142;9.960;2023-11-19T04:07:21;99611.03;;;7.28;100.00
39443;BME280;25147;52.142;9.960;2023-11-19T04:09:48;99614.47;;;7.30;100.00
39443;BME280;25147;52.142;9.960;2023-11-19T04:12:17;99627.22;;;7.47;100.00
39443;BME280;25147;52.142;9.960;2023-11-19T04:14:45;99628.16;;;7.42;100.00
39443;BME280;25147;52.142;9.960;2023-11-19T04:17:12;99628.09;;;7.47;100.00
39443;BME280;25147;52.142;9.960;2023-11-19T04:19:38;99590.13;;;7.32;100.00
39443;BME280;25147;52.142;9.960;2023-11-19T04:22:07;99620.31;;;7.44;100.00
39443;BME280;25147;52.142;9.960;2023-11-19T04:24:33;99623.66;;;7.51;100.00
39443;BME280;25147;52.142;9.960;2023-11-19T04:27:00;99574.50;;;7.32;100.00
39443;BME280;25147;52.142;9.960;2023-11-19T04:29:29;99605.53;;;7.46;100.00
39443;BME280;25147;52.142;9.960;2023-11-19T04:31:57;99633.00;;;7.64;100.00
39443;BME280;25147;52.142;9.960;2023-11-19T04:34:23;99580.63;;;7.30;100.00
39443;BME280;25147;52.142;9.960;2023-11-19T04:36:51;99569.47;;;7.23;100.00
39443;BME280;25147;52.142;9.960;2023-11-19T04:39:18;99593.47;;;7.40;100.00
39443;BME280;25147;52.142;9.960;2023-11-19T04:41:48;99606.44;;;7.45;100.00
39443;BME280;25147;52.142;9.960;2023-11-19T04:44:16;99624.41;;;7.59;100.00
39443;BME280;25147;52.142;9.960;2023-11-19T04:46:44;99615.69;;;7.61;100.00
39443;BME280;25147;52.142;9.960;2023-11-19T04:49:12;99563.25;;;7.32;100.00
39443;BME280;25147;52.142;9.960;2023-11-19T04:51:39;99660.44;;;7.85;100.00
39443;BME280;25147;52.142;9.960;2023-11-19T04:54:06;99646.50;;;7.88;100.00
39443;BME280;25147;52.142;9.960;2023-11-19T04:56:34;99646.44;;;7.91;100.00
39443;BME280;25147;52.142;9.960;2023-11-19T04:59:00;99643.03;;;7.86;100.00
39443;BME280;25147;52.142;9.960;2023-11-19T05:01:27;99624.75;;;7.89;100.00
39443;BME280;25147;52.142;9.960;2023-11-19T05:03:56;99562.94;;;7.49;100.00
39443;BME280;25147;52.142;9.960;2023-11-19T05:06:26;99627.47;;;7.84;100.00
39443;BME280;25147;52.142;9.960;2023-11-19T05:08:53;99632.44;;;7.98;100.00
39443;BME280;25147;52.142;9.960;2023-11-19T05:11:20;99548.94;;;7.54;100.00
39443;BME280;25147;52.142;9.960;2023-11-19T05:13:47;99653.13;;;8.06;100.00
39443;BME280;25147;52.142;9.960;2023-11-19T05:16:14;99623.72;;;7.97;100.00
39443;BME280;25147;52.142;9.960;2023-11-19T05:18:41;99585.81;;;7.79;100.00
39443;BME280;25147;52.142;9.960;2023-11-19T05:21:09;99589.09;;;7.92;100.00
39443;BME280;25147;52.142;9.960;2023-11-19T05:23:36;99590.72;;;7.98;100.00
39443;BME280;25147;52.142;9.960;2023-11-19T05:26:03;99605.94;;;8.19;100.00
39443;BME280;25147;52.142;9.960;2023-11-19T05:28:30;99566.25;;;8.05;100.00
39443;BME280;25147;52.142;9.960;2023-11-19T05:30:57;99577.47;;;8.09;100.00
39443;BME280;25147;52.142;9.960;2023-11-19T05:33:24;99546.47;;;7.95;100.00
39443;BME280;25147;52.142;9.960;2023-11-19T05:35:51;99582.34;;;8.26;100.00
39443;BME280;25147;52.142;9.960;2023-11-19T05:38:20;99558.16;;;8.19;100.00
39443;BME280;25147;52.142;9.960;2023-11-19T05:40:47;99532.94;;;8.19;100.00
39443;BME280;25147;52.142;9.960;2023-11-19T05:43:15;99560.38;;;8.37;100.00
39443;BME280;25147;52.142;9.960;2023-11-19T05:45:42;99562.16;;;8.35;100.00
39443;BME280;25147;52.142;9.960;2023-11-19T05:48:09;99593.78;;;8.63;100.00
39443;BME280;25147;52.142;9.960;2023-11-19T05:50:36;99596.25;;;8.70;100.00
39443;BME280;25147;52.142;9.960;2023-11-19T05:53:03;99577.31;;;8.60;100.00
39443;BME280;25147;52.142;9.960;2023-11-19T05:55:35;99597.69;;;8.83;100.00
39443;BME280;25147;52.142;9.960;2023-11-19T05:58:10;99517.00;;;8.33;100.00
39443;BME280;25147;52.142;9.960;2023-11-19T06:00:37;99507.28;;;8.40;100.00
39443;BME280;25147;52.142;9.960;2023-11-19T06:03:04;99559.56;;;8.77;100.00
39443;BME280;25147;52.142;9.960;2023-11-19T06:05:31;99588.59;;;8.99;100.00
39443;BME280;25147;52.142;9.960;2023-11-19T06:07:58;99584.19;;;9.01;100.00
39443;BME280;25147;52.142;9.960;2023-11-19T06:10:24;99555.06;;;8.82;100.00
39443;BME280;25147;52.142;9.960;2023-11-19T06:12:57;99559.41;;;8.83;100.00
39443;BME280;25147;52.142;9.960;2023-11-19T06:15:25;99588.53;;;9.04;100.00
39443;BME280;25147;52.142;9.960;2023-11-19T06:17:52;99578.38;;;8.92;100.00
39443;BME280;25147;52.142;9.960;2023-11-19T06:20:20;99564.53;;;8.87;100.00
39443;BME280;25147;52.142;9.960;2023-11-19T06:22:47;99591.13;;;9.04;100.00
39443;BME280;25147;52.142;9.960;2023-11-19T06:25:14;99553.31;;;8.83;100.00
39443;BME280;25147;52.142;9.960;2023-11-19T06:27:41;99586.00;;;8.99;100.00
39443;BME280;25147;52.142;9.960;2023-11-19T06:30:10;99603.22;;;9.08;100.00
39443;BME280;25147;52.142;9.960;2023-11-19T06:32:38;99560.97;;;8.91;100.00
39443;BME280;25147;52.142;9.960;2023-11-19T06:35:05;99623.66;;;9.28;100.00
39443;BME280;25147;52.142;9.960;2023-11-19T06:37:32;99617.44;;;9.32;100.00
39443;BME280;25147;52.142;9.960;2023-11-19T06:39:59;99596.00;;;9.18;100.00
39443;BME280;25147;52.142;9.960;2023-11-19T06:42:26;99592.34;;;9.27;100.00
39443;BME280;25147;52.142;9.960;2023-11-19T06:44:52;99611.13;;;9.41;100.00
39443;BME280;25147;52.142;9.960;2023-11-19T06:47:21;99624.19;;;9.41;100.00
39443;BME280;25147;52.142;9.960;2023-11-19T06:49:47;99601.13;;;9.22;100.00
39443;BME280;25147;52.142;9.960;2023-11-19T06:52:16;99637.16;;;9.44;100.00
39443;BME280;25147;52.142;9.960;2023-11-19T06:54:43;99599.06;;;9.35;100.00
39443;BME280;25147;52.142;9.960;2023-11-19T06:57:11;99586.88;;;9.36;100.00
39443;BME280;25147;52.142;9.960;2023-11-19T06:59:37;99548.25;;;9.13;100.00
39443;BME280;25147;52.142;9.960;2023-11-19T07:02:04;99596.34;;;9.40;100.00
39443;BME280;25147;52.142;9.960;2023-11-19T07:04:32;99644.69;;;9.58;100.00
39443;BME280;25147;52.142;9.960;2023-11-19T07:06:59;99563.00;;;9.15;100.00
39443;BME280;25147;52.142;9.960;2023-11-19T07:09:26;99604.25;;;9.38;100.00
39443;BME280;25147;52.142;9.960;2023-11-19T07:11:53;99647.16;;;9.62;100.00
39443;BME280;25147;52.142;9.960;2023-11-19T07:14:20;99613.63;;;9.46;100.00
39443;BME280;25147;52.142;9.960;2023-11-19T07:16:49;99621.31;;;9.52;100.00
39443;BME280;25147;52.142;9.960;2023-11-19T07:19:16;99655.44;;;9.81;100.00
39443;BME280;25147;52.142;9.960;2023-11-19T07:21:44;99653.50;;;9.88;100.00
39443;BME280;25147;52.142;9.960;2023-11-19T07:24:11;99659.53;;;9.92;100.00
39443;BME280;25147;52.142;9.960;2023-11-19T07:26:42;99648.13;;;9.94;100.00
39443;BME280;25147;52.142;9.960;2023-11-19T07:29:10;99628.41;;;9.81;100.00
39443;BME280;25147;52.142;9.960;2023-11-19T07:31:37;99649.88;;;9.94;100.00
39443;BME280;25147;52.142;9.960;2023-11-19T07:34:04;99651.59;;;9.95;100.00
39443;BME280;25147;52.142;9.960;2023-11-19T07:36:32;99663.78;;;9.96;100.00
39443;BME280;25147;52.142;9.960;2023-11-19T07:39:00;99667.28;;;9.95;100.00
39443;BME280;25147;52.142;9.960;2023-11-19T07:41:27;99643.09;;;9.87;100.00
39443;BME280;25147;52.142;9.960;2023-11-19T07:43:54;99616.56;;;9.68;100.00
39443;BME280;25147;52.142;9.960;2023-11-19T07:46:21;99649.88;;;9.94;100.00
39443;BME280;25147;52.142;9.960;2023-11-19T07:48:48;99665.25;;;10.06;100.00
39443;BME280;25147;52.142;9.960;2023-11-19T07:51:15;99629.13;;;9.88;100.00
39443;BME280;25147;52.142;9.960;2023-11-19T07:53:42;99655.03;;;9.97;100.00
39443;BME280;25147;52.142;9.960;2023-11-19T07:56:11;99637.75;;;9.91;100.00
39443;BME280;25147;52.142;9.960;2023-11-19T07:58:38;99666.88;;;10.10;100.00
39443;BME280;25147;52.142;9.960;2023-11-19T08:01:05;99679.97;;;10.10;100.00
39443;BME280;25147;52.142;9.960;2023-11-19T08:03:32;99668.66;;;10.10;100.00
39443;BME280;25147;52.142;9.960;2023-11-19T08:06:00;99679.06;;;10.11;100.00
39443;BME280;25147;52.142;9.960;2023-11-19T08:08:28;99669.38;;;10.15;100.00
39443;BME280;25147;52.142;9.960;2023-11-19T08:10:55;99650.53;;;10.02;100.00
39443;BME280;25147;52.142;9.960;2023-11-19T08:13:24;99648.53;;;10.12;100.00
39443;BME280;25147;52.142;9.960;2023-11-19T08:15:51;99651.53;;;9.98;100.00
39443;BME280;25147;52.142;9.960;2023-11-19T08:18:18;99648.78;;;10.02;100.00
39443;BME280;25147;52.142;9.960;2023-11-19T08:20:45;99634.38;;;9.86;100.00
39443;BME280;25147;52.142;9.960;2023-11-19T08:23:14;99673.72;;;10.16;100.00
39443;BME280;25147;52.142;9.960;2023-11-19T08:25:41;99666.19;;;10.03;100.00
39443;BME280;25147;52.142;9.960;2023-11-19T08:28:08;99684.34;;;10.10;100.00
39443;BME280;25147;52.142;9.960;2023-11-19T08:30:36;99664.28;;;10.10;100.00
39443;BME280;25147;52.142;9.960;2023-11-19T08:33:03;99679.41;;;10.32;100.00
39443;BME280;25147;52.142;9.960;2023-11-19T08:35:31;99691.63;;;10.31;100.00
39443;BME280;25147;52.142;9.960;2023-11-19T08:37:58;99624.69;;;9.91;100.00
39443;BME280;25147;52.142;9.960;2023-11-19T08:40:25;99692.22;;;10.42;100.00
39443;BME280;25147;52.142;9.960;2023-11-19T08:42:52;99711.19;;;10.51;100.00
39443;BME280;25147;52.142;9.960;2023-11-19T08:45:18;99626.84;;;10.08;100.00
39443;BME280;25147;52.142;9.960;2023-11-19T08:47:46;99636.28;;;10.14;100.00
39443;BME280;25147;52.142;9.960;2023-11-19T08:50:12;99689.31;;;10.53;100.00
39443;BME280;25147;52.142;9.960;2023-11-19T08:52:40;99694.78;;;10.44;100.00
39443;BME280;25147;52.142;9.960;2023-11-19T08:55:07;99676.34;;;10.49;100.00
39443;BME280;25147;52.142;9.960;2023-11-19T08:57:35;99686.00;;;10.47;100.00
39443;BME280;25147;52.142;9.960;2023-11-19T09:00:03;99666.06;;;10.42;100.00
39443;BME280;25147;52.142;9.960;2023-11-19T09:02:33;99622.09;;;10.22;100.00
39443;BME280;25147;52.142;9.960;2023-11-19T09:05:01;99713.84;;;10.49;100.00
39443;BME280;25147;52.142;9.960;2023-11-19T09:07:28;99711.63;;;10.67;100.00
39443;BME280;25147;52.142;9.960;2023-11-19T09:09:55;99632.53;;;10.24;100.00
39443;BME280;25147;52.142;9.960;2023-11-19T09:12:22;99724.41;;;10.77;100.00
39443;BME280;25147;52.142;9.960;2023-11-19T09:14:48;99716.41;;;10.82;100.00
39443;BME280;25147;52.142;9.960;2023-11-19T09:17:15;99737.22;;;10.87;100.00
39443;BME280;25147;52.142;9.960;2023-11-19T09:19:43;99618.50;;;10.27;100.00
39443;BME280;25147;52.142;9.960;2023-11-19T09:22:11;99698.47;;;10.68;100.00
39443;BME280;25147;52.142;9.960;2023-11-19T09:24:38;99690.41;;;10.76;100.00
39443;BME280;25147;52.142;9.960;2023-11-19T09:27:05;99584.03;;;10.11;100.00
39443;BME280;25147;52.142;9.960;2023-11-19T09:29:32;99724.72;;;10.96;100.00
39443;BME280;25147;52.142;9.960;2023-11-19T09:31:59;99749.72;;;11.08;100.00
39443;BME280;25147;52.142;9.960;2023-11-19T09:34:26;99721.25;;;10.96;100.00
39443;BME280;25147;52.142;9.960;2023-11-19T09:36:53;99706.25;;;10.71;100.00
39443;BME280;25147;52.142;9.960;2023-11-19T09:39:21;99744.78;;;10.97;100.00
39443;BME280;25147;52.142;9.960;2023-11-19T09:41:48;99751.69;;;11.00;100.00
39443;BME280;25147;52.142;9.960;2023-11-19T09:44:15;99697.97;;;10.55;100.00
39443;BME280;25147;52.142;9.960;2023-11-19T09:46:44;99750.03;;;10.97;100.00
39443;BME280;25147;52.142;9.960;2023-11-19T09:49:12;99726.88;;;10.82;100.00
39443;BME280;25147;52.142;9.960;2023-11-19T09:51:39;99754.56;;;10.91;100.00
39443;BME280;25147;52.142;9.960;2023-11-19T09:54:07;99729.66;;;10.77;100.00
39443;BME280;25147;52.142;9.960;2023-11-19T09:56:37;99729.66;;;10.77;100.00
39443;BME280;25147;52.142;9.960;2023-11-19T09:59:05;99724.84;;;10.93;100.00
39443;BME280;25147;52.142;9.960;2023-11-19T10:01:32;99763.59;;;11.12;100.00
39443;BME280;25147;52.142;9.960;2023-11-19T10:04:01;99722.22;;;10.93;100.00
39443;BME280;25147;52.142;9.960;2023-11-19T10:06:28;99733.88;;;11.11;100.00
39443;BME280;25147;52.142;9.960;2023-11-19T10:08:55;99708.56;;;10.82;100.00
39443;BME280;25147;52.142;9.960;2023-11-19T10:11:22;99746.91;;;11.14;100.00
39443;BME280;25147;52.142;9.960;2023-11-19T10:13:51;99729.81;;;11.01;100.00
39443;BME280;25147;52.142;9.960;2023-11-19T10:16:19;99753.09;;;11.12;100.00
39443;BME280;25147;52.142;9.960;2023-11-19T10:18:47;99750.50;;;11.12;100.00
39443;BME280;25147;52.142;9.960;2023-11-19T10:21:14;99703.47;;;10.77;100.00
39443;BME280;25147;52.142;9.960;2023-11-19T10:23:48;99731.63;;;10.99;100.00
39443;BME280;25147;52.142;9.960;2023-11-19T10:26:16;99764.41;;;11.14;100.00
39443;BME280;25147;52.142;9.960;2023-11-19T10:28:43;99718.25;;;10.78;100.00
39443;BME280;25147;52.142;9.960;2023-11-19T10:31:12;99770.75;;;11.05;100.00
39443;BME280;25147;52.142;9.960;2023-11-19T10:33:39;99741.75;;;10.81;100.00
39443;BME280;25147;52.142;9.960;2023-11-19T10:36:07;99752.59;;;10.99;100.00
39443;BME280;25147;52.142;9.960;2023-11-19T10:38:34;99719.16;;;10.77;100.00
39443;BME280;25147;52.142;9.960;2023-11-19T10:41:00;99766.31;;;11.07;100.00
39443;BME280;25147;52.142;9.960;2023-11-19T10:43:27;99749.13;;;10.98;100.00
39443;BME280;25147;52.142;9.960;2023-11-19T10:46:08;99745.59;;;10.99;100.00
39443;BME280;25147;52.142;9.960;2023-11-19T10:48:36;99697.09;;;10.56;100.00
39443;BME280;25147;52.142;9.960;2023-11-19T10:51:07;99752.75;;;10.93;100.00
39443;BME280;25147;52.142;9.960;2023-11-19T10:53:36;99751.09;;;10.90;100.00
39443;BME280;25147;52.142;9.960;2023-11-19T10:56:06;99696.81;;;10.66;100.00
39443;BME280;25147;52.142;9.960;2023-11-19T10:58:35;99713.16;;;10.74;100.00
39443;BME280;25147;52.142;9.960;2023-11-19T11:01:09;99713.97;;;10.76;100.00
39443;BME280;25147;52.142;9.960;2023-11-19T11:03:40;99716.38;;;10.83;100.00
39443;BME280;25147;52.142;9.960;2023-11-19T11:06:08;99735.81;;;11.06;100.00
39443;BME280;25147;52.142;9.960;2023-11-19T11:08:36;99642.38;;;10.47;100.00
39443;BME280;25147;52.142;9.960;2023-11-19T11:11:05;99740.28;;;11.01;100.00
39443;BME280;25147;52.142;9.960;2023-11-19T11:13:34;99727.16;;;11.02;100.00
39443;BME280;25147;52.142;9.960;2023-11-19T11:16:04;99728.91;;;11.03;100.00
39443;BME280;25147;52.142;9.960;2023-11-19T11:18:33;99700.38;;;10.93;100.00
39443;BME280;25147;52.142;9.960;2023-11-19T11:21:06;99730.16;;;11.20;100.00
39443;BME280;25147;52.142;9.960;2023-11-19T11:24:03;99645.09;;;10.74;100.00
39443;BME280;25147;52.142;9.960;2023-11-19T11:26:57;99728.03;;;11.33;100.00
39443;BME280;25147;52.142;9.960;2023-11-19T11:29:35;99691.22;;;11.08;100.00
39443;BME280;25147;52.142;9.960;2023-11-19T11:32:16;99723.50;;;11.38;100.00
39443;BME280;25147;52.142;9.960;2023-11-19T11:35:22;99734.69;;;11.43;100.00
39443;BME280;25147;52.142;9.960;2023-11-19T11:38:00;99732.91;;;11.43;100.00
39443;BME280;25147;52.142;9.960;2023-11-19T11:40:28;99726.25;;;11.33;100.00
39443;BME280;25147;52.142;9.960;2023-11-19T11:42:55;99682.44;;;11.09;100.00
39443;BME280;25147;52.142;9.960;2023-11-19T11:45:35;99734.91;;;11.35;100.00
39443;BME280;25147;52.142;9.960;2023-11-19T11:48:08;99743.75;;;11.33;100.00
39443;BME280;25147;52.142;9.960;2023-11-19T11:50:50;99696.31;;;11.12;100.00
39443;BME280;25147;52.142;9.960;2023-11-19T11:53:21;99738.53;;;11.31;100.00
39443;BME280;25147;52.142;9.960;2023-11-19T11:55:57;99740.31;;;11.31;100.00
39443;BME280;25147;52.142;9.960;2023-11-19T11:58:27;99669.25;;;10.83;100.00
39443;BME280;25147;52.142;9.960;2023-11-19T12:00:57;99735.22;;;11.26;100.00
39443;BME280;25147;52.142;9.960;2023-11-19T12:03:27;99720.75;;;11.13;100.00
39443;BME280;25147;52.142;9.960;2023-11-19T12:05:54;99708.38;;;11.18;100.00
39443;BME280;25147;52.142;9.960;2023-11-19T12:08:26;99723.75;;;11.30;100.00
39443;BME280;25147;52.142;9.960;2023-11-19T12:10:55;99720.47;;;11.23;100.00
39443;BME280;25147;52.142;9.960;2023-11-19T12:13:26;99723.75;;;11.30;100.00
39443;BME280;25147;52.142;9.960;2023-11-19T12:16:08;99691.94;;;11.13;100.00
39443;BME280;25147;52.142;9.960;2023-11-19T12:18:34;99730.88;;;11.25;100.00
39443;BME280;25147;52.142;9.960;2023-11-19T12:21:02;99700.41;;;11.21;100.00
39443;BME280;25147;52.142;9.960;2023-11-19T12:23:32;99726.88;;;11.41;100.00
39443;BME280;25147;52.142;9.960;2023-11-19T12:25:59;99733.69;;;11.47;100.00
39443;BME280;25147;52.142;9.960;2023-11-19T12:28:26;99703.91;;;11.50;100.00
39443;BME280;25147;52.142;9.960;2023-11-19T12:30:53;99727.22;;;11.59;100.00
39443;BME280;25147;52.142;9.960;2023-11-19T12:33:20;99491.31;;;10.22;100.00
39443;BME280;25147;52.142;9.960;2023-11-19T12:35:48;99717.88;;;11.50;100.00
39443;BME280;25147;52.142;9.960;2023-11-19T12:38:18;99681.66;;;11.35;100.00
39443;BME280;25147;52.142;9.960;2023-11-19T12:40:47;99712.66;;;11.50;100.00
39443;BME280;25147;52.142;9.960;2023-11-19T12:43:21;99673.78;;;11.35;100.00
39443;BME280;25147;52.142;9.960;2023-11-19T12:45:48;99706.31;;;11.56;100.00
39443;BME280;25147;52.142;9.960;2023-11-19T12:48:15;99727.47;;;11.78;100.00
39443;BME280;25147;52.142;9.960;2023-11-19T12:50:53;99729.72;;;11.90;100.00
39443;BME280;25147;52.142;9.960;2023-11-19T12:53:20;99722.75;;;11.91;100.00
39443;BME280;25147;52.142;9.960;2023-11-19T12:55:49;99648.34;;;11.38;100.00
39443;BME280;25147;52.142;9.960;2023-11-19T12:58:30;99721.09;;;11.87;100.00
39443;BME280;25147;52.142;9.960;2023-11-19T13:01:02;99707.47;;;11.75;100.00